createdAt,value
2018-01-28T00:01:10.899Z,6.37
2018-01-28T00:03:38.474Z,6.42
2018-01-28T00:06:06.075Z,6.39
2018-01-28T00:08:33.640Z,6.40
2018-01-28T00:11:01.199Z,6.42
2018-01-28T00:13:28.926Z,6.43
2018-01-28T00:15:56.521Z,6.46
2018-01-28T00:18:24.118Z,6.48
2018-01-28T00:20:51.716Z,6.49
2018-01-28T00:23:19.262Z,6.48
2018-01-28T00:25:46.817Z,6.48
2018-01-28T00:28:14.438Z,6.48
2018-01-28T00:30:42.009Z,6.47
2018-01-28T00:33:09.588Z,6.52
2018-01-28T00:35:37.164Z,6.51
2018-01-28T00:38:04.740Z,6.52
2018-01-28T00:40:32.289Z,6.43
2018-01-28T00:42:59.895Z,6.44
2018-01-28T00:45:27.467Z,6.46
2018-01-28T00:47:55.347Z,6.49
2018-01-28T00:50:22.938Z,6.49
2018-01-28T00:52:50.507Z,6.56
2018-01-28T00:55:18.559Z,6.49
2018-01-28T00:57:46.123Z,6.47
2018-01-28T01:00:14.595Z,6.45
2018-01-28T01:02:43.345Z,6.43
2018-01-28T01:05:11.006Z,6.35
2018-01-28T01:07:38.579Z,6.43
2018-01-28T01:10:06.121Z,6.36
2018-01-28T01:12:33.703Z,6.40
2018-01-28T01:15:01.315Z,6.42
2018-01-28T01:17:28.906Z,6.43
2018-01-28T01:19:56.486Z,6.42
2018-01-28T01:22:24.056Z,6.47
2018-01-28T01:24:51.629Z,6.49
2018-01-28T01:27:19.222Z,6.45
2018-01-28T01:29:46.780Z,6.49
2018-01-28T01:32:14.610Z,6.45
2018-01-28T01:34:42.239Z,6.46
2018-01-28T01:37:09.864Z,6.51
2018-01-28T01:39:37.526Z,6.38
2018-01-28T01:42:05.176Z,6.42
2018-01-28T01:44:32.736Z,6.48
2018-01-28T01:47:00.314Z,6.41
2018-01-28T01:49:35.773Z,6.47
2018-01-28T01:52:03.330Z,6.46
2018-01-28T01:54:31.178Z,6.48
2018-01-28T01:56:58.766Z,6.48
2018-01-28T01:59:26.377Z,6.48
2018-01-28T02:01:53.932Z,6.44
2018-01-28T02:04:21.577Z,6.45
2018-01-28T02:06:49.157Z,6.40
2018-01-28T02:09:16.725Z,6.41
2018-01-28T02:11:44.331Z,6.42
2018-01-28T02:14:11.904Z,6.43
2018-01-28T02:16:39.454Z,6.52
2018-01-28T02:19:07.053Z,6.48
2018-01-28T02:21:34.596Z,6.54
2018-01-28T02:24:02.183Z,6.47
2018-01-28T02:26:29.774Z,6.48
2018-01-28T02:28:57.332Z,6.52
2018-01-28T02:31:24.917Z,6.53
2018-01-28T02:33:52.497Z,6.49
2018-01-28T02:36:20.081Z,6.56
2018-01-28T02:38:47.638Z,6.60
2018-01-28T02:41:15.536Z,6.61
2018-01-28T02:43:43.113Z,6.67
2018-01-28T02:46:10.654Z,6.63
2018-01-28T02:48:38.517Z,6.65
2018-01-28T02:51:06.077Z,6.66
2018-01-28T02:53:33.953Z,6.71
2018-01-28T02:56:01.564Z,6.76
2018-01-28T02:58:29.484Z,6.75
2018-01-28T03:00:57.211Z,6.81
2018-01-28T03:03:24.823Z,6.78
2018-01-28T03:05:52.395Z,6.83
2018-01-28T03:08:19.973Z,6.85
2018-01-28T03:10:47.577Z,6.89
2018-01-28T03:13:15.138Z,6.85
2018-01-28T03:15:42.750Z,6.93
2018-01-28T03:18:10.379Z,6.93
2018-01-28T03:20:37.962Z,6.94
2018-01-28T03:23:05.955Z,6.95
2018-01-28T03:25:33.524Z,6.98
2018-01-28T03:28:01.080Z,7.02
2018-01-28T03:30:28.906Z,7.01
2018-01-28T03:32:56.513Z,7.07
2018-01-28T03:35:24.130Z,7.04
2018-01-28T03:37:51.748Z,7.03
2018-01-28T03:40:19.338Z,7.00
2018-01-28T03:42:46.928Z,7.00
2018-01-28T03:45:14.486Z,6.99
2018-01-28T03:47:42.153Z,6.99
2018-01-28T03:50:09.742Z,6.97
2018-01-28T03:52:37.333Z,6.95
2018-01-28T03:55:04.951Z,6.96
2018-01-28T03:57:32.545Z,6.94
2018-01-28T04:00:00.118Z,6.83
2018-01-28T04:02:27.731Z,6.77
2018-01-28T04:04:55.293Z,6.63
2018-01-28T04:07:22.851Z,6.61
2018-01-28T04:09:50.438Z,6.63
2018-01-28T04:12:18.041Z,6.65
2018-01-28T04:14:45.651Z,6.60
2018-01-28T04:17:13.225Z,6.64
2018-01-28T04:19:41.129Z,6.69
2018-01-28T04:22:08.669Z,6.68
2018-01-28T04:24:36.278Z,6.61
2018-01-28T04:27:04.127Z,6.59
2018-01-28T04:29:31.989Z,6.59
2018-01-28T04:31:59.578Z,6.59
2018-01-28T04:34:27.156Z,6.55
2018-01-28T04:36:54.710Z,6.63
2018-01-28T04:39:22.284Z,6.60
2018-01-28T04:41:49.839Z,6.52
2018-01-28T04:44:17.391Z,6.53
2018-01-28T04:46:45.333Z,6.54
2018-01-28T04:49:12.939Z,6.51
2018-01-28T04:51:40.512Z,6.54
2018-01-28T04:54:08.117Z,6.48
2018-01-28T04:56:35.674Z,6.44
2018-01-28T04:59:03.333Z,6.50
2018-01-28T05:01:31.521Z,6.54
2018-01-28T05:03:59.105Z,6.54
2018-01-28T05:06:26.938Z,6.59
2018-01-28T05:08:54.546Z,6.65
2018-01-28T05:11:22.123Z,6.65
2018-01-28T05:13:49.739Z,6.65
2018-01-28T05:16:17.335Z,6.71
2018-01-28T05:18:44.948Z,6.77
2018-01-28T05:21:12.540Z,6.70
2018-01-28T05:23:40.206Z,6.72
2018-01-28T05:26:08.042Z,6.71
2018-01-28T05:28:35.645Z,6.72
2018-01-28T05:31:03.577Z,6.75
2018-01-28T05:33:31.145Z,6.83
2018-01-28T05:35:58.712Z,6.84
2018-01-28T05:38:26.408Z,6.84
2018-01-28T05:40:54.019Z,6.85
2018-01-28T05:43:21.560Z,6.88
2018-01-28T05:45:49.147Z,6.90
2018-01-28T05:48:16.693Z,6.83
2018-01-28T05:50:44.257Z,6.85
2018-01-28T05:53:11.902Z,6.81
2018-01-28T05:55:39.513Z,6.93
2018-01-28T05:58:07.103Z,6.82
2018-01-28T06:00:34.738Z,6.79
2018-01-28T06:03:02.676Z,6.84
2018-01-28T06:05:30.237Z,6.74
2018-01-28T06:07:57.874Z,6.73
2018-01-28T06:10:25.409Z,6.66
2018-01-28T06:12:53.091Z,6.64
2018-01-28T06:15:20.731Z,6.58
2018-01-28T06:17:48.271Z,6.65
2018-01-28T06:20:15.909Z,6.51
2018-01-28T06:22:43.492Z,6.53
2018-01-28T06:25:11.043Z,6.51
2018-01-28T06:27:38.901Z,6.41
2018-01-28T06:30:06.501Z,6.48
2018-01-28T06:32:34.124Z,6.47
2018-01-28T06:35:01.696Z,6.45
2018-01-28T06:37:29.281Z,6.53
2018-01-28T06:39:56.873Z,6.55
2018-01-28T06:42:24.435Z,6.57
2018-01-28T06:44:52.067Z,6.53
2018-01-28T06:47:19.663Z,6.57
2018-01-28T06:49:47.578Z,6.58
2018-01-28T06:52:15.193Z,6.59
2018-01-28T06:54:42.766Z,6.63
2018-01-28T06:57:10.440Z,6.66
2018-01-28T06:59:38.048Z,6.73
2018-01-28T07:02:05.621Z,6.74
2018-01-28T07:04:33.207Z,6.68
2018-01-28T07:07:01.099Z,6.78
2018-01-28T07:09:28.657Z,6.69
2018-01-28T07:11:56.301Z,6.78
2018-01-28T07:14:24.193Z,6.66
2018-01-28T07:16:51.829Z,6.71
2018-01-28T07:19:19.393Z,6.71
2018-01-28T07:21:46.996Z,6.69
2018-01-28T07:24:14.541Z,6.73
2018-01-28T07:26:42.109Z,6.71
2018-01-28T07:29:09.994Z,6.78
2018-01-28T07:31:37.538Z,6.70
2018-01-28T07:34:05.132Z,6.69
2018-01-28T07:36:33.060Z,6.74
2018-01-28T07:39:00.929Z,6.78
2018-01-28T07:41:28.573Z,6.73
2018-01-28T07:43:56.197Z,6.80
2018-01-28T07:46:23.802Z,6.77
2018-01-28T07:48:51.427Z,6.78
2018-01-28T07:51:19.058Z,6.81
2018-01-28T07:53:46.684Z,6.86
2018-01-28T07:56:14.495Z,6.89
2018-01-28T07:58:42.110Z,6.93
2018-01-28T08:01:09.712Z,6.90
2018-01-28T08:03:37.495Z,7.02
2018-01-28T08:06:05.143Z,7.05
2018-01-28T08:08:32.747Z,7.00
2018-01-28T08:11:02.812Z,6.99
2018-01-28T08:13:36.157Z,7.09
2018-01-28T08:16:03.740Z,7.10
2018-01-28T08:18:31.622Z,7.24
2018-01-28T08:20:59.500Z,7.22
2018-01-28T08:23:27.056Z,7.24
2018-01-28T08:25:54.648Z,7.19
2018-01-28T08:31:20.252Z,7.17
2018-01-28T08:33:48.116Z,7.19
2018-01-28T08:36:15.711Z,7.20
2018-01-28T08:38:43.319Z,7.18
2018-01-28T08:41:10.943Z,7.19
2018-01-28T08:43:38.518Z,7.24
2018-01-28T08:46:06.352Z,7.14
2018-01-28T08:48:34.206Z,7.24
2018-01-28T08:51:01.793Z,7.28
2018-01-28T08:53:29.401Z,7.28
2018-01-28T08:55:57.301Z,7.32
2018-01-28T08:58:24.940Z,7.35
2018-01-28T09:00:52.621Z,7.37
2018-01-28T09:03:20.236Z,7.40
2018-01-28T09:05:47.824Z,7.34
2018-01-28T09:08:15.513Z,7.46
2018-01-28T09:10:43.172Z,7.51
2018-01-28T09:13:10.768Z,7.65
2018-01-28T09:15:38.346Z,7.65
2018-01-28T09:18:05.955Z,7.72
2018-01-28T09:20:33.911Z,7.80
2018-01-28T09:23:01.542Z,7.84
2018-01-28T09:25:29.279Z,7.93
2018-01-28T09:27:56.828Z,7.89
2018-01-28T09:30:24.386Z,7.96
2018-01-28T09:32:52.012Z,8.00
2018-01-28T09:35:19.673Z,7.97
2018-01-28T09:37:47.251Z,8.22
2018-01-28T09:40:14.844Z,8.28
2018-01-28T09:42:42.430Z,8.27
2018-01-28T09:45:10.006Z,8.29
2018-01-28T09:47:37.611Z,8.38
2018-01-28T09:50:05.185Z,8.53
2018-01-28T09:52:32.762Z,8.65
2018-01-28T09:55:00.700Z,8.79
2018-01-28T09:57:28.269Z,8.79
2018-01-28T09:59:55.891Z,8.78
2018-01-28T10:02:23.537Z,8.82
2018-01-28T10:04:51.343Z,8.77
2018-01-28T10:07:18.916Z,8.73
2018-01-28T10:09:47.605Z,8.56
2018-01-28T10:12:15.273Z,8.64
2018-01-28T10:14:42.923Z,8.93
2018-01-28T10:17:11.440Z,8.89
2018-01-28T10:19:39.040Z,9.04
2018-01-28T10:22:06.663Z,8.92
2018-01-28T10:24:34.267Z,9.05
2018-01-28T10:27:02.080Z,8.94
2018-01-28T10:29:29.698Z,8.97
2018-01-28T10:31:57.345Z,9.11
2018-01-28T10:34:24.906Z,8.93
2018-01-28T10:36:52.484Z,8.94
2018-01-28T10:39:20.093Z,9.13
2018-01-28T10:41:47.685Z,9.10
2018-01-28T10:44:15.253Z,8.98
2018-01-28T10:46:42.877Z,8.97
2018-01-28T10:49:10.441Z,8.87
2018-01-28T10:51:38.052Z,8.89
2018-01-28T10:54:05.715Z,8.89
2018-01-28T10:56:33.292Z,8.82
2018-01-28T10:59:00.877Z,8.78
2018-01-28T11:01:28.471Z,8.81
2018-01-28T11:03:56.062Z,8.79
2018-01-28T11:06:23.960Z,8.83
2018-01-28T11:08:51.581Z,8.83
2018-01-28T11:11:19.497Z,8.82
2018-01-28T11:13:47.128Z,8.86
2018-01-28T11:16:14.773Z,8.86
2018-01-28T11:18:42.490Z,8.87
2018-01-28T11:21:10.331Z,8.93
2018-01-28T11:23:37.947Z,8.97
2018-01-28T11:26:05.507Z,9.06
2018-01-28T11:28:33.198Z,9.09
2018-01-28T11:31:00.865Z,9.07
2018-01-28T11:33:28.427Z,9.03
2018-01-28T11:35:56.470Z,9.00
2018-01-28T11:38:24.400Z,9.01
2018-01-28T11:40:51.985Z,9.08
2018-01-28T11:43:19.574Z,9.05
2018-01-28T11:45:47.186Z,8.94
2018-01-28T11:48:14.768Z,9.08
2018-01-28T11:50:42.337Z,9.02
2018-01-28T11:53:09.920Z,9.01
2018-01-28T11:55:37.517Z,8.94
2018-01-28T11:58:05.156Z,8.75
2018-01-28T12:00:32.761Z,8.61
2018-01-28T12:03:00.356Z,8.64
2018-01-28T12:05:27.963Z,8.69
2018-01-28T12:07:55.557Z,8.62
2018-01-28T12:10:23.159Z,8.73
2018-01-28T12:12:50.718Z,8.80
2018-01-28T12:15:18.340Z,8.78
2018-01-28T12:17:45.968Z,8.73
2018-01-28T12:20:13.543Z,8.73
2018-01-28T12:22:41.153Z,8.68
2018-01-28T12:25:08.791Z,8.63
2018-01-28T12:27:36.377Z,8.61
2018-01-28T12:30:04.277Z,8.55
2018-01-28T12:32:32.058Z,8.65
2018-01-28T12:34:59.694Z,8.61
2018-01-28T12:37:27.314Z,8.54
2018-01-28T12:39:54.934Z,8.57
2018-01-28T12:42:22.808Z,8.53
2018-01-28T12:44:50.425Z,8.48
2018-01-28T12:47:18.350Z,8.58
2018-01-28T12:49:45.917Z,8.53
2018-01-28T12:52:13.538Z,8.56
2018-01-28T12:54:41.682Z,8.59
2018-01-28T12:57:09.506Z,8.64
2018-01-28T12:59:37.257Z,8.70
2018-01-28T13:02:04.845Z,8.68
2018-01-28T13:04:32.421Z,8.67
2018-01-28T13:07:00.030Z,8.64
2018-01-28T13:09:27.596Z,8.72
2018-01-28T13:11:55.258Z,8.79
2018-01-28T13:14:22.894Z,8.81
2018-01-28T13:16:50.539Z,8.84
2018-01-28T13:19:18.138Z,8.86
2018-01-28T13:21:45.803Z,8.91
2018-01-28T13:24:13.389Z,8.85
2018-01-28T13:26:41.027Z,8.96
2018-01-28T13:29:08.621Z,9.10
2018-01-28T13:31:36.202Z,9.01
2018-01-28T13:34:04.238Z,9.09
2018-01-28T13:36:31.824Z,9.11
2018-01-28T13:38:59.376Z,9.36
2018-01-28T13:41:27.065Z,9.40
2018-01-28T13:43:54.698Z,9.44
2018-01-28T13:46:22.292Z,9.49
2018-01-28T13:48:49.870Z,9.49
2018-01-28T13:51:17.473Z,9.50
2018-01-28T13:53:45.043Z,9.52
2018-01-28T13:56:12.618Z,9.61
2018-01-28T13:58:40.563Z,9.59
2018-01-28T14:01:08.175Z,9.69
2018-01-28T14:03:35.864Z,9.64
2018-01-28T14:06:03.766Z,9.70
2018-01-28T14:08:31.375Z,9.71
2018-01-28T14:10:59.285Z,9.75
2018-01-28T14:13:26.922Z,9.60
2018-01-28T14:15:54.492Z,9.62
2018-01-28T14:18:22.088Z,9.62
2018-01-28T14:20:49.716Z,9.63
2018-01-28T14:23:17.306Z,9.59
2018-01-28T14:25:45.165Z,9.59
2018-01-28T14:28:12.796Z,9.69
2018-01-28T14:30:40.462Z,9.54
2018-01-28T14:33:08.360Z,9.52
2018-01-28T14:35:35.984Z,9.54
2018-01-28T14:38:03.553Z,9.58
2018-01-28T14:40:31.141Z,9.53
2018-01-28T14:42:58.970Z,9.53
2018-01-28T14:45:26.556Z,9.53
2018-01-28T14:47:54.196Z,9.60
2018-01-28T14:50:21.825Z,9.62
2018-01-28T14:52:49.661Z,9.52
2018-01-28T14:55:17.247Z,9.53
2018-01-28T14:57:44.941Z,9.52
2018-01-28T15:00:12.499Z,9.46
2018-01-28T15:02:40.081Z,9.50
2018-01-28T15:05:08.084Z,9.51
2018-01-28T15:07:35.675Z,9.53
2018-01-28T15:10:03.262Z,9.53
2018-01-28T15:12:30.919Z,9.46
2018-01-28T15:14:58.900Z,9.46
2018-01-28T15:17:26.477Z,9.49
2018-01-28T15:19:54.116Z,9.49
2018-01-28T15:22:21.804Z,9.51
2018-01-28T15:24:49.422Z,9.44
2018-01-28T15:27:17.369Z,9.46
2018-01-28T15:29:44.948Z,9.45
2018-01-28T15:32:12.534Z,9.43
2018-01-28T15:34:40.149Z,9.41
2018-01-28T15:37:07.725Z,9.49
2018-01-28T15:39:35.584Z,9.48
2018-01-28T15:42:03.190Z,9.44
2018-01-28T15:44:30.884Z,9.41
2018-01-28T15:46:58.661Z,9.39
2018-01-28T15:49:26.254Z,9.42
2018-01-28T15:51:53.828Z,9.37
2018-01-28T15:54:21.414Z,9.35
2018-01-28T15:56:49.056Z,9.39
2018-01-28T15:59:16.881Z,9.39
2018-01-28T16:01:44.475Z,9.38
2018-01-28T16:04:12.133Z,9.37
2018-01-28T16:06:39.773Z,9.42
2018-01-28T16:09:07.639Z,9.38
2018-01-28T16:11:35.276Z,9.46
2018-01-28T16:14:02.852Z,9.42
2018-01-28T16:16:30.419Z,9.36
2018-01-28T16:18:58.089Z,9.41
2018-01-28T16:21:25.750Z,9.36
2018-01-28T16:23:53.622Z,9.37
2018-01-28T16:26:21.241Z,9.39
2018-01-28T16:28:48.825Z,9.41
2018-01-28T16:31:16.396Z,9.41
2018-01-28T16:33:44.019Z,9.44
2018-01-28T16:36:11.578Z,9.41
2018-01-28T16:38:39.167Z,9.38
2018-01-28T16:41:07.037Z,9.47
2018-01-28T16:43:34.631Z,9.48
2018-01-28T16:46:02.211Z,9.46
2018-01-28T16:48:30.151Z,9.44
2018-01-28T16:50:57.786Z,9.49
2018-01-28T16:53:25.448Z,9.48
2018-01-28T16:55:53.067Z,9.53
2018-01-28T16:58:20.670Z,9.54
2018-01-28T17:00:48.659Z,9.52
2018-01-28T17:03:16.263Z,9.58
2018-01-28T17:05:44.393Z,9.60
2018-01-28T17:08:11.984Z,9.62
2018-01-28T17:10:39.586Z,9.67
2018-01-28T17:13:07.186Z,9.66
2018-01-28T17:15:34.801Z,9.70
2018-01-28T17:18:02.388Z,9.69
2018-01-28T17:20:29.948Z,9.70
2018-01-28T17:22:57.511Z,9.72
2018-01-28T17:25:25.206Z,9.74
2018-01-28T17:27:52.791Z,9.71
2018-01-28T17:30:20.368Z,9.72
2018-01-28T17:32:48.290Z,9.70
2018-01-28T17:35:21.792Z,9.74
2018-01-28T17:37:49.467Z,9.75
2018-01-28T17:40:17.313Z,9.74
2018-01-28T17:42:44.908Z,9.70
2018-01-28T17:45:12.510Z,9.73
2018-01-28T17:47:40.146Z,9.64
2018-01-28T17:50:07.787Z,9.71
2018-01-28T17:52:35.390Z,9.59
2018-01-28T17:55:02.949Z,9.55
2018-01-28T17:57:30.577Z,9.55
2018-01-28T17:59:58.252Z,9.52
2018-01-28T18:02:25.854Z,9.59
2018-01-28T18:04:53.508Z,9.56
2018-01-28T18:07:21.133Z,9.60
2018-01-28T18:09:48.744Z,9.61
2018-01-28T18:12:16.733Z,9.57
2018-01-28T18:14:44.384Z,9.56
2018-01-28T18:17:11.949Z,9.51
2018-01-28T18:19:39.840Z,9.53
2018-01-28T18:22:07.559Z,9.43
2018-01-28T18:24:35.161Z,9.42
2018-01-28T18:27:02.833Z,9.46
2018-01-28T18:29:30.461Z,9.56
2018-01-28T18:31:58.284Z,9.50
2018-01-28T18:34:26.037Z,9.41
2018-01-28T18:36:53.679Z,9.45
2018-01-28T18:39:21.312Z,9.43
2018-01-28T18:41:48.945Z,9.33
2018-01-28T18:44:16.687Z,9.23
2018-01-28T18:46:44.318Z,9.17
2018-01-28T18:49:12.182Z,9.03
2018-01-28T18:51:40.058Z,9.00
2018-01-28T18:54:08.228Z,8.96
2018-01-28T18:56:35.894Z,8.90
2018-01-28T18:59:03.612Z,8.80
2018-01-28T19:01:31.357Z,8.83
2018-01-28T19:03:59.120Z,8.86
2018-01-28T19:06:26.765Z,8.94
2018-01-28T19:08:54.395Z,8.94
2018-01-28T19:11:22.104Z,8.86
2018-01-28T19:13:49.794Z,8.82
2018-01-28T19:16:17.538Z,8.73
2018-01-28T19:18:45.172Z,8.81
2018-01-28T19:21:12.793Z,8.85
2018-01-28T19:23:40.432Z,8.66
2018-01-28T19:26:08.486Z,8.63
2018-01-28T19:28:36.346Z,8.63
2018-01-28T19:31:04.033Z,8.65
2018-01-28T19:33:31.728Z,8.59
2018-01-28T19:35:59.678Z,8.57
2018-01-28T19:38:27.709Z,8.55
2018-01-28T19:40:55.433Z,8.55
2018-01-28T19:43:23.107Z,8.61
2018-01-28T19:45:51.204Z,8.60
2018-01-28T19:48:19.688Z,8.55
2018-01-28T19:50:47.868Z,8.62
2018-01-28T19:53:15.619Z,8.62
2018-01-28T19:55:43.528Z,8.56
2018-01-28T19:58:11.161Z,8.49
2018-01-28T20:00:40.771Z,8.47
2018-01-28T20:03:08.535Z,8.53
2018-01-28T20:05:36.286Z,8.56
2018-01-28T20:08:04.477Z,8.54
2018-01-28T20:10:32.324Z,8.50
2018-01-28T20:13:00.394Z,8.41
2018-01-28T20:15:28.205Z,8.46
2018-01-28T20:17:56.003Z,8.42
2018-01-28T20:20:24.867Z,8.41
2018-01-28T20:22:52.629Z,8.35
2018-01-28T20:25:20.294Z,8.35
2018-01-28T20:27:47.985Z,8.33
2018-01-28T20:30:15.664Z,8.31
2018-01-28T20:32:46.212Z,8.34
2018-01-28T20:35:14.321Z,8.40
2018-01-28T20:37:42.250Z,8.36
2018-01-28T20:40:10.362Z,8.38
2018-01-28T20:42:38.487Z,8.27
2018-01-28T20:45:06.227Z,8.28
2018-01-28T20:47:33.842Z,8.34
2018-01-28T20:50:01.494Z,8.26
2018-01-28T20:52:29.116Z,8.19
2018-01-28T20:54:56.731Z,8.21
2018-01-28T20:57:24.313Z,8.28
2018-01-28T20:59:51.927Z,8.24
2018-01-28T21:02:19.554Z,8.22
2018-01-28T21:04:47.212Z,8.22
2018-01-28T21:07:14.833Z,8.23
2018-01-28T21:09:42.543Z,8.17
2018-01-28T21:12:10.153Z,8.19
2018-01-28T21:14:37.715Z,8.16
2018-01-28T21:17:05.319Z,8.18
2018-01-28T21:19:32.962Z,8.16
2018-01-28T21:22:00.597Z,8.20
2018-01-28T21:24:28.182Z,8.18
2018-01-28T21:26:55.836Z,8.23
2018-01-28T21:29:23.398Z,8.25
2018-01-28T21:31:50.982Z,8.22
2018-01-28T21:34:18.617Z,8.27
2018-01-28T21:36:46.180Z,8.31
2018-01-28T21:39:13.768Z,8.31
2018-01-28T21:41:41.402Z,8.31
2018-01-28T21:44:09.002Z,8.35
2018-01-28T21:46:36.828Z,8.35
2018-01-28T21:49:04.470Z,8.43
2018-01-28T21:51:32.048Z,8.40
2018-01-28T21:53:59.605Z,8.44
2018-01-28T21:56:27.524Z,8.48
2018-01-28T21:58:55.149Z,8.51
2018-01-28T22:01:22.719Z,8.55
2018-01-28T22:03:50.354Z,8.60
2018-01-28T22:06:17.939Z,8.59
2018-01-28T22:08:45.689Z,8.62
2018-01-28T22:11:14.391Z,8.66
2018-01-28T22:13:42.093Z,8.70
2018-01-28T22:16:09.805Z,8.75
2018-01-28T22:18:37.440Z,8.79
2018-01-28T22:21:05.056Z,8.79
2018-01-28T22:23:32.647Z,8.83
2018-01-28T22:26:00.260Z,8.89
2018-01-28T22:28:27.874Z,8.96
2018-01-28T22:30:55.471Z,8.99
2018-01-28T22:33:23.345Z,9.01
2018-01-28T22:35:51.207Z,9.03
2018-01-28T22:38:18.778Z,9.08
2018-01-28T22:40:46.402Z,9.10
2018-01-28T22:43:13.984Z,9.13
2018-01-28T22:45:41.973Z,9.14
2018-01-28T22:48:09.570Z,9.22
2018-01-28T22:50:37.132Z,9.21
2018-01-28T22:53:05.100Z,9.23
2018-01-28T22:55:32.819Z,9.27
2018-01-28T22:58:00.494Z,9.33
2018-01-28T23:00:28.234Z,9.30
2018-01-28T23:02:55.814Z,9.26
2018-01-28T23:05:23.776Z,9.30
2018-01-28T23:07:51.362Z,9.34
2018-01-28T23:10:19.204Z,9.35
2018-01-28T23:12:46.783Z,9.34
2018-01-28T23:15:14.659Z,9.39
2018-01-28T23:17:42.251Z,9.43
2018-01-28T23:20:09.838Z,9.41
2018-01-28T23:22:37.463Z,9.41
2018-01-28T23:25:05.091Z,9.42
2018-01-28T23:27:32.700Z,9.44
2018-01-28T23:30:00.252Z,9.45
2018-01-28T23:32:27.883Z,9.46
2018-01-28T23:34:55.488Z,9.49
2018-01-28T23:37:23.094Z,9.45
2018-01-28T23:39:50.691Z,9.44
2018-01-28T23:42:18.256Z,9.54
2018-01-28T23:44:45.803Z,9.50
2018-01-28T23:47:13.405Z,9.49
2018-01-28T23:49:40.955Z,9.49
2018-01-28T23:52:08.584Z,9.47
2018-01-28T23:54:36.234Z,9.51
2018-01-28T23:57:03.825Z,9.52
2018-01-28T23:59:31.373Z,9.53
